Sweetwater River (73, 625) Station Data

Red Flag Warning: No
Fire Weather Zone: 250
SDGE Region: Mountain Empire
Lat/Lon: 32.832/-116.628

Observations

Time Wind Speed/Gust Temp(F) RH Fuel Moist Fuel Temp(F) Dewpt(F) Tmax(F) Tmin(F) Accum Precip 10-min Precip SL Press(mb)
6/27 5:00pm 263 13 G 19 83° 19% - - 37° 88.4° 59.8° - - -
6/27 4:50pm 262 13 G 18 84° 19% - - 37° 88.4° 59.8° - - -
6/27 4:40pm 265 13 G 19 84° 18% - - 36° 88.4° 59.8° - - -
6/27 4:30pm 264 11 G 19 84° 19% - - 37° 88.4° 59.8° - - -
6/27 4:20pm 268 12 G 19 84° 19% - - 38° 88.4° 59.8° - - -
6/27 4:10pm 263 11 G 18 84° 19% - - 38° 88.4° 59.8° - - -
6/27 4:00pm 265 12 G 19 84° 20% - - 39° 88.4° 59.8° - - -
6/27 3:50pm 266 12 G 18 84° 19% - - 38° 88.4° 59.8° - - -
6/27 3:40pm 277 13 G 21 84° 17% - - 34° 88.4° 59.8° - - -
6/27 3:30pm 273 13 G 20 85° 17% - - 36° 88.4° 59.8° - - -
6/27 3:20pm 261 13 G 22 85° 17% - - 36° 88.4° 59.8° - - -
6/27 3:10pm 270 13 G 22 85° 18% - - 36° 88.4° 59.8° - - -
6/27 3:00pm 276 12 G 22 86° 18% - - 37° 88.4° 59.8° - - -
6/27 2:50pm 278 13 G 22 86° 19% - - 39° 88.4° 59.8° - - -
6/27 2:40pm 270 13 G 20 86° 19% - - 39° 88.4° 59.8° - - -
6/27 2:30pm 262 13 G 23 86° 20% - - 40° 88.4° 59.8° - - -
6/27 2:20pm 271 12 G 20 86° 20% - - 40° 88.4° 59.8° - - -
6/27 2:10pm 264 13 G 21 86° 19% - - 39° 88.4° 59.8° - - -
6/27 2:00pm 265 13 G 20 86° 17% - - 37° 88.4° 59.8° - - -
6/27 1:50pm 262 12 G 19 86° 18% - - 37° 88.4° 59.8° - - -
6/27 1:40pm 268 12 G 21 87° 14% - - 32° 88.4° 59.8° - - -
6/27 1:30pm 274 13 G 21 87° 12% - - 28° 88.4° 59.8° - - -
6/27 1:20pm 260 14 G 24 87° 10% - - 25° 88.4° 59.8° - - -
6/27 1:10pm 266 13 G 21 87° 11% - - 26° 88.4° 59.8° - - -
6/27 1:00pm 263 12 G 20 87° 11% - - 25° 88.4° 59.8° - - -
6/27 12:50pm 260 13 G 21 87° 11% - - 25° 88.4° 59.8° - - -
6/27 12:40pm 259 12 G 18 87° 11% - - 25° 88.4° 59.8° - - -
6/27 12:30pm 278 11 G 17 87° 10% - - 25° 87.9° 59.8° - - -
6/27 12:20pm 274 12 G 19 86° 10% - - 24° 87.5° 59.8° - - -
6/27 12:10pm 273 11 G 17 86° 10% - - 24° 87.5° 59.8° - - -
6/27 12:00pm 274 12 G 20 86° 10% - - 24° 87.5° 59.8° - - -
6/27 11:50am 268 14 G 21 86° 11% - - 24° 86.6° 59.8° - - -
6/27 11:40am 268 12 G 20 86° 11% - - 25° 86.6° 59.8° - - -
6/27 11:30am 264 11 G 18 85° 11% - - 25° 86.6° 59.8° - - -
6/27 11:20am 262 10 G 17 85° 11% - - 25° 86.6° 59.8° - - -
6/27 11:10am 269 11 G 21 85° 11% - - 25° 86.6° 59.8° - - -
6/27 11:00am 269 10 G 16 85° 11% - - 24° 86.6° 59.8° - - -
6/27 10:50am 289 8 G 15 85° 10% - - 23° 86.6° 59.8° - - -
6/27 10:40am 286 6 G 12 85° 10% - - 23° 86.6° 59.8° - - -
6/27 10:30am 308 8 G 15 85° 11% - - 23° 85.7° 59.8° - - -
6/27 10:20am 299 8 G 14 84° 10% - - 23° 85.7° 59.8° - - -
6/27 10:10am 316 7 G 12 85° 11% - - 23° 85.7° 59.8° - - -
6/27 10:00am 291 8 G 14 84° 10% - - 22° 85.2° 59.8° - - -
6/27 9:50am 308 6 G 10 84° 10% - - 22° 85.1° 59.8° - - -
6/27 9:40am 292 9 G 14 83° 10% - - 20° 84.6° 59.8° - - -
6/27 9:30am 296 8 G 14 83° 10% - - 20° 84° 59.8° - - -
6/27 9:20am 290 10 G 16 83° 9% - - 18° 83.6° 59.8° - - -
6/27 9:10am 285 8 G 13 83° 10% - - 20° 83.6° 59.8° - - -
6/27 9:00am 290 6 G 11 83° 10% - - 21° 83.6° 59.8° - - -
6/27 8:50am 315 4 G 7 83° 11% - - 23° 83.6° 59.8° - - -
6/27 8:40am 315 4 G 8 83° 12% - - 25° 83.3° 59.8° - - -
6/27 8:30am 13 4 G 7 81° 15% - - 29° 82.3° 59.8° - - -
6/27 8:20am 71 2 G 3 79° 21% - - 36° 80.1° 59.8° - - -
6/27 8:10am 75 3 G 4 76° 24% - - 37° 77.6° 59.8° - - -
6/27 8:00am 79 4 G 7 73° 26% - - 36° 77.6° 59.8° - - -
6/27 7:50am 80 5 G 9 71° 26% - - 35° 77.6° 59.8° - - -
6/27 7:40am 81 5 G 10 70° 25% - - 33° 77.6° 59.8° - - -
6/27 7:30am 84 5 G 10 68° 25% - - 32° 77.6° 59.8° - - -
6/27 7:20am 85 7 G 12 67° 25% - - 30° 77.6° 59.8° - - -
6/27 7:10am 82 7 G 11 66° 25% - - 29° 77.6° 59.8° - - -
6/27 7:00am 83 7 G 12 65° 25% - - 28° 77.6° 59.8° - - -
6/27 6:50am 85 7 G 11 64° 25% - - 27° 77.6° 59.8° - - -
6/27 6:40am 84 7 G 10 63° 26% - - 27° 77.6° 59.8° - - -
6/27 6:30am 79 7 G 10 62° 26% - - 26° 77.6° 59.8° - - -
6/27 6:20am 85 7 G 12 62° 26% - - 26° 77.6° 59.8° - - -
6/27 6:10am 84 8 G 12 61° 26% - - 26° 77.6° 59.8° - - -
6/27 6:00am 84 7 G 11 61° 26% - - 26° 77.6° 59.8° - - -
6/27 5:50am 85 7 G 11 61° 26% - - 26° 77.6° 59.8° - - -
6/27 5:40am 84 7 G 12 61° 26% - - 26° 77.6° 59.8° - - -
6/27 5:30am 85 6 G 10 61° 26% - - 26° 77.6° 59.8° - - -
6/27 5:20am 85 5 G 9 61° 27% - - 26° 77.6° 59.8° - - -
6/27 5:10am 86 6 G 10 60° 27% - - 26° 77.6° 59.8° - - -
6/27 5:00am 80 7 G 9 60° 27% - - 26° 77.6° 59.8° - - -
6/27 4:50am 81 7 G 11 60° 27% - - 26° 77.6° 59.8° - - -
6/27 4:40am 80 6 G 9 61° 26% - - 26° 77.6° 60.1° - - -
6/27 4:30am 83 5 G 8 61° 26% - - 26° 77.6° 60.5° - - -
6/27 4:20am 87 6 G 9 61° 26% - - 26° 77.6° 60.5° - - -
6/27 4:10am 84 4 G 8 62° 25% - - 25° 77.6° 61.1° - - -
6/27 4:00am 75 6 G 9 63° 24% - - 25° 77.6° 61.5° - - -
6/27 3:50am 77 5 G 8 63° 24% - - 25° 77.6° 61.5° - - -
6/27 3:40am 80 5 G 9 63° 23% - - 25° 77.6° 62.5° - - -
6/27 3:30am 66 5 G 8 64° 22% - - 24° 77.6° 63° - - -
6/27 3:20am 71 5 G 7 66° 20% - - 24° 77.6° 64.4° - - -
6/27 3:10am 77 3 G 6 67° 19% - - 24° 77.6° 65.3° - - -
6/27 3:00am 102 2 G 5 70° 17% - - 23° 77.6° 65.3° - - -
6/27 2:50am 107 2 G 3 70° 17% - - 23° 77.6° 65.3° - - -
6/27 2:40am 119 2 G 3 68° 18% - - 23° 77.6° 65.3° - - -
6/27 2:30am 82 3 G 4 66° 20% - - 23° 77.6° 65.3° - - -
6/27 2:20am 77 3 G 4 67° 19% - - 23° 77.6° 65.8° - - -
6/27 2:10am 77 3 G 6 69° 17% - - 23° 77.6° 66° - - -
6/27 2:00am 106 1 G 3 68° 18% - - 22° 77.6° 66° - - -
6/27 1:50am 78 3 G 6 67° 18% - - 22° 77.6° 66° - - -
6/27 1:40am 67 3 G 5 72° 14% - - 20° 77.6° 67.7° - - -
6/27 1:30am 115 1 G 3 71° 14% - - 20° 77.6° 69.4° - - -
6/27 1:20am 85 3 G 6 70° 14% - - 20° 77.6° 69.4° - - -
6/27 1:10am 96 3 G 7 72° 13% - - 19° 77.6° 71.2° - - -
6/27 1:00am 81 3 G 5 74° 12% - - 17° 77.6° 72.6° - - -
6/27 12:50am 261 3 G 8 75° 11% - - 17° 77.6° 74.1° - - -
6/27 12:40am 265 6 G 10 76° 11% - - 18° 77.6° 75.2° - - -
6/27 12:30am 261 7 G 11 76° 11% - - 18° 77.6° 75.3° - - -
6/27 12:20am 263 8 G 12 77° 11% - - 17° 77.6° 76° - - -
6/27 12:10am 267 9 G 14 77° 10% - - 17° 77.6° 76.4° - - -
6/27 12:00am 269 8 G 11 77° 10% - - 17° 95.3° 65.3° - - -
6/26 11:50pm 275 7 G 12 77° 10% - - 17° 95.3° 65.3° - - -
6/26 11:40pm 276 7 G 11 77° 10% - - 17° 95.3° 65.3° - - -
6/26 11:30pm 282 6 G 9 77° 11% - - 18° 95.3° 65.3° - - -
6/26 11:20pm 284 6 G 9 77° 11% - - 18° 95.3° 65.3° - - -
6/26 11:10pm 294 5 G 8 77° 11% - - 18° 95.3° 65.3° - - -
6/26 11:00pm 304 5 G 9 77° 11% - - 18° 95.3° 65.3° - - -
6/26 10:50pm 320 4 G 8 77° 11% - - 19° 95.3° 65.3° - - -
6/26 10:40pm 331 3 G 6 76° 13% - - 21° 95.3° 65.3° - - -
6/26 10:30pm 26 2 G 4 72° 17% - - 25° 95.3° 65.3° - - -
6/26 10:20pm 80 3 G 6 69° 21% - - 27° 95.3° 65.3° - - -
6/26 10:10pm 79 4 G 8 70° 21% - - 28° 95.3° 65.3° - - -
6/26 10:00pm 76 4 G 8 70° 20% - - 27° 95.3° 65.3° - - -
6/26 9:50pm 85 7 G 10 71° 19% - - 27° 95.3° 65.3° - - -
6/26 9:40pm 87 6 G 9 73° 18% - - 27° 95.3° 65.3° - - -
6/26 9:30pm 92 6 G 9 73° 19% - - 28° 95.3° 65.3° - - -
6/26 9:20pm 99 4 G 8 75° 17% - - 27° 95.3° 65.3° - - -
6/26 9:10pm 353 2 G 5 79° 13% - - 24° 95.3° 65.3° - - -
6/26 9:00pm 305 3 G 6 79° 13% - - 24° 95.3° 65.3° - - -
6/26 8:50pm 280 2 G 5 79° 13% - - 24° 95.3° 65.3° - - -
6/26 8:40pm 293 2 G 5 79° 13% - - 25° 95.3° 65.3° - - -
6/26 8:30pm 307 2 G 5 79° 14% - - 25° 95.3° 65.3° - - -
6/26 8:20pm 318 3 G 6 79° 14% - - 25° 95.3° 65.3° - - -
6/26 8:10pm 351 2 G 5 79° 15% - - 27° 95.3° 65.3° - - -
6/26 8:00pm 341 3 G 8 80° 15% - - 29° 95.3° 65.3° - - -
6/26 7:50pm 333 4 G 6 82° 17% - - 32° 95.3° 65.3° - - -
6/26 7:40pm 329 4 G 8 84° 15% - - 32° 95.3° 65.3° - - -
6/26 7:30pm 290 7 G 12 85° 14% - - 31° 95.3° 65.3° - - -
6/26 7:20pm 281 9 G 14 85° 13% - - 30° 95.3° 65.3° - - -
6/26 7:10pm 281 8 G 12 86° 13% - - 29° 95.3° 65.3° - - -
6/26 7:00pm 280 10 G 14 87° 11% - - 26° 95.3° 65.3° - - -
6/26 6:50pm 282 11 G 17 87° 11% - - 26° 95.3° 65.3° - - -
6/26 6:40pm 278 11 G 16 88° 10% - - 25° 95.3° 65.3° - - -
6/26 6:30pm 284 12 G 18 88° 10% - - 25° 95.3° 65.3° - - -
6/26 6:20pm 278 13 G 19 88° 11% - - 26° 95.3° 65.3° - - -
6/26 6:10pm 277 14 G 23 88° 11% - - 27° 95.3° 65.3° - - -
6/26 6:00pm 286 12 G 19 89° 11% - - 27° 95.3° 65.3° - - -
6/26 5:50pm 293 11 G 23 90° 10% - - 26° 95.3° 65.3° - - -
6/26 5:40pm 300 14 G 25 90° 9% - - 23° 95.3° 65.3° - - -
6/26 5:30pm 282 16 G 26 90° 9% - - 23° 95.3° 65.3° - - -
6/26 5:20pm 285 17 G 25 90° 9% - - 24° 95.3° 65.3° - - -
6/26 5:10pm 283 15 G 22 91° 9% - - 23° 95.3° 65.3° - - -
6/26 5:00pm 294 13 G 22 91° 8% - - 23° 95.3° 65.3° - - -
6/26 4:50pm 299 15 G 25 92° 8% - - 23° 95.3° 65.3° - - -
6/26 4:40pm 283 15 G 24 91° 8% - - 23° 95.3° 65.3° - - -
6/26 4:30pm 287 14 G 23 92° 8% - - 23° 95.3° 65.3° - - -
6/26 4:20pm 295 12 G 23 92° 8% - - 24° 95.3° 65.3° - - -
6/26 4:10pm 283 15 G 26 92° 9% - - 26° 95.3° 65.3° - - -
6/26 4:00pm 280 12 G 23 92° 10% - - 27° 95.3° 65.3° - - -
6/26 3:50pm 295 12 G 20 92° 10% - - 29° 95.3° 65.3° - - -
6/26 3:40pm 293 12 G 23 93° 11% - - 30° 95.3° 65.3° - - -
6/26 3:30pm 290 14 G 26 92° 11% - - 30° 95.3° 65.3° - - -
6/26 3:20pm 282 13 G 24 92° 11% - - 31° 95.3° 65.3° - - -
6/26 3:10pm 281 14 G 21 93° 11% - - 31° 95.3° 65.3° - - -
6/26 3:00pm 291 11 G 20 93° 12% - - 32° 95.3° 65.3° - - -
6/26 2:50pm 299 10 G 21 94° 12% - - 33° 95.3° 65.3° - - -
6/26 2:40pm 296 13 G 23 92° 13% - - 33° 95.1° 65.3° - - -
6/26 2:30pm 287 14 G 23 93° 11% - - 32° 95.1° 65.3° - - -
6/26 2:20pm 286 12 G 21 93° 13% - - 35° 95.1° 65.3° - - -
6/26 2:10pm 296 11 G 21 93° 13% - - 35° 95.1° 65.3° - - -
6/26 2:00pm 313 10 G 18 93° 13% - - 35° 95.1° 65.3° - - -
6/26 1:50pm 280 14 G 20 93° 12% - - 34° 95.1° 65.3° - - -
6/26 1:40pm 281 13 G 20 93° 11% - - 31° 95.1° 65.3° - - -
6/26 1:30pm 294 12 G 22 93° 11% - - 32° 95.1° 65.3° - - -
6/26 1:20pm 316 9 G 19 94° 12% - - 33° 95.1° 65.3° - - -
6/26 1:10pm 305 12 G 23 93° 11% - - 31° 94.7° 65.3° - - -
6/26 1:00pm 308 9 G 17 93° 11% - - 30° 94.7° 65.3° - - -
6/26 12:50pm 293 11 G 18 93° 10% - - 29° 94.4° 65.3° - - -
6/26 12:40pm 306 11 G 21 93° 10% - - 28° 94.4° 65.3° - - -
6/26 12:30pm 298 13 G 23 93° 10% - - 29° 94.3° 65.3° - - -
6/26 12:20pm 306 12 G 23 93° 9% - - 27° 94.3° 65.3° - - -
6/26 12:10pm 327 10 G 20 93° 10% - - 28° 94.3° 65.3° - - -
6/26 12:00pm 312 10 G 20 93° 10% - - 27° 94.1° 65.3° - - -
6/26 11:50am 293 11 G 22 93° 11% - - 29° 94.1° 65.3° - - -
6/26 11:40am 318 7 G 14 92° 11% - - 30° 94.1° 65.3° - - -
6/26 11:30am 300 11 G 18 92° 11% - - 30° 93.6° 65.3° - - -
6/26 11:20am 317 8 G 19 92° 11% - - 31° 93.5° 65.3° - - -
6/26 11:10am 323 9 G 18 93° 11% - - 31° 93.5° 65.3° - - -
6/26 11:00am 334 9 G 20 92° 12% - - 31° 93.4° 65.3° - - -
6/26 10:50am 309 8 G 22 92° 11% - - 30° 92.8° 65.3° - - -
6/26 10:40am 322 8 G 19 91° 11% - - 30° 92.6° 65.3° - - -
6/26 10:30am 319 7 G 14 92° 12% - - 31° 92.6° 65.3° - - -
6/26 10:20am 316 8 G 19 91° 12% - - 31° 92.3° 65.3° - - -
6/26 10:10am 304 7 G 16 91° 12% - - 32° 92.3° 65.3° - - -
6/26 10:00am 317 6 G 12 91° 12% - - 31° 92.3° 65.3° - - -
6/26 9:50am 310 6 G 13 91° 12% - - 32° 92.3° 65.3° - - -
6/26 9:40am 326 6 G 16 90° 13% - - 32° 91.5° 65.3° - - -
6/26 9:30am 304 6 G 10 90° 13% - - 32° 91.5° 65.3° - - -
6/26 9:20am 331 5 G 13 90° 13% - - 33° 91.5° 65.3° - - -
6/26 9:10am 288 5 G 11 90° 13% - - 33° 90.8° 65.3° - - -
6/26 9:00am 332 4 G 10 90° 14% - - 34° 90.5° 65.3° - - -
6/26 8:50am 45 3 G 6 88° 19% - - 40° 89° 65.3° - - -
6/26 8:40am 60 4 G 6 86° 22% - - 42° 86.9° 65.3° - - -
6/26 8:30am 66 3 G 5 83° 27% - - 45° 84.7° 65.3° - - -
6/26 8:20am 71 3 G 4 80° 30% - - 46° 81.6° 65.3° - - -
6/26 8:10am 73 5 G 8 76° 33% - - 45° 81.5° 65.3° - - -
6/26 8:00am 73 5 G 7 74° 34% - - 44° 81.5° 65.3° - - -
6/26 7:50am 72 6 G 9 71° 35% - - 42° 81.5° 65.3° - - -
6/26 7:40am 73 6 G 9 72° 33% - - 41° 81.5° 65.3° - - -
6/26 7:30am 75 5 G 7 71° 32% - - 40° 81.5° 65.3° - - -
6/26 7:20am 74 6 G 9 70° 32% - - 39° 81.5° 65.3° - - -
6/26 7:10am 74 6 G 8 69° 32% - - 38° 81.5° 65.3° - - -
6/26 7:00am 73 6 G 9 69° 31% - - 37° 81.5° 65.3° - - -
6/26 6:50am 70 8 G 10 69° 30% - - 36° 81.5° 65.3° - - -
6/26 6:40am 70 8 G 11 68° 30% - - 36° 81.5° 65.3° - - -
6/26 6:30am 76 6 G 9 67° 32% - - 36° 81.5° 65.3° - - -
6/26 6:20am 75 7 G 10 67° 32% - - 36° 81.5° 65.3° - - -
6/26 6:10am 72 7 G 10 67° 31% - - 35° 81.5° 65.3° - - -
6/26 6:00am 73 7 G 10 66° 32% - - 36° 81.5° 65.3° - - -